Yonkers, New York
Current Conditions -  °F | °C
As of 11:51 PM on Tuesday 25 Nov 2014 (Local Time) from KTEB Reporting Station
Clear Clear  
Wind Chill: 45°   Ceiling: Unl
Heat Index: 48°   Visibility: 10mi
Dew Point: 30°   Wind: 7mph
Humidity: 50%   Direction: 210°SSW
Pressure: 30.16"   Gusts: NA
Location:  40.93°N, 73.9°W
Report Text: KTEB 260451Z 21006KT 10SM CLR 09/M01 A3016 RMK AO2 SLP211 T00891011 401940083
Loading
Personal Weather Stations






























Interactive Weather Map New forecast layout! Learn more

10-Day Weather Forecast

Advertisements
Track Severe Weather on mobile